createdAt,value
2018-11-28T00:00:50.079Z,1.67
2018-11-28T00:03:32.588Z,1.90
2018-11-28T00:06:14.484Z,1.60
2018-11-28T00:08:56.015Z,1.80
2018-11-28T00:11:37.539Z,1.75
2018-11-28T00:14:19.356Z,1.70
2018-11-28T00:17:00.854Z,1.50
2018-11-28T00:19:42.687Z,2.10
2018-11-28T00:22:24.360Z,1.60
2018-11-28T00:25:06.426Z,1.70
2018-11-28T00:27:47.500Z,1.72
2018-11-28T00:30:29.612Z,1.65
2018-11-28T00:33:11.421Z,1.90
2018-11-28T00:35:52.676Z,2.10
2018-11-28T00:38:34.069Z,1.77
2018-11-28T00:41:15.877Z,1.85
2018-11-28T00:43:57.664Z,1.60
2018-11-28T00:46:39.275Z,2.10
2018-11-28T00:49:20.722Z,1.98
2018-11-28T00:52:02.239Z,2.05
2018-11-28T00:54:44.002Z,1.70
2018-11-28T00:57:25.528Z,1.70
2018-11-28T01:00:07.704Z,1.90
2018-11-28T01:02:48.769Z,1.90
2018-11-28T01:05:30.493Z,1.47
2018-11-28T01:08:12.294Z,1.45
2018-11-28T01:10:53.945Z,1.98
2018-11-28T01:13:35.432Z,1.80
2018-11-28T01:16:17.121Z,2.00
2018-11-28T01:18:59.094Z,1.80
2018-11-28T01:21:40.402Z,1.70
2018-11-28T01:24:22.196Z,1.70
2018-11-28T01:27:03.684Z,1.60
2018-11-28T01:29:45.579Z,1.70
2018-11-28T01:32:27.066Z,1.80
2018-11-28T01:35:08.756Z,1.80
2018-11-28T01:37:50.479Z,1.50
2018-11-28T01:40:31.989Z,1.60
2018-11-28T01:43:13.522Z,1.80
2018-11-28T01:45:55.100Z,1.82
2018-11-28T01:48:36.599Z,2.10
2018-11-28T01:51:18.187Z,1.95
2018-11-28T01:54:00.698Z,1.60
2018-11-28T01:56:42.286Z,1.77
2018-11-28T01:59:23.879Z,1.80
2018-11-28T02:02:08.964Z,2.10
2018-11-28T02:04:50.332Z,2.00
2018-11-28T02:07:31.718Z,1.87
2018-11-28T02:10:13.508Z,1.70
2018-11-28T02:12:54.071Z,1.82
2018-11-28T02:15:35.555Z,1.80
2018-11-28T02:18:17.350Z,1.72
2018-11-28T02:20:59.963Z,1.40
2018-11-28T02:23:42.476Z,1.75
2018-11-28T02:26:23.959Z,1.70
2018-11-28T02:29:06.089Z,1.55
2018-11-28T02:31:47.243Z,1.62
2018-11-28T02:34:28.750Z,1.40
2018-11-28T02:37:10.630Z,2.12
2018-11-28T02:39:52.210Z,1.95
2018-11-28T02:42:34.003Z,1.40
2018-11-28T02:45:15.600Z,1.42
2018-11-28T02:47:57.103Z,1.77
2018-11-28T02:50:38.768Z,1.67
2018-11-28T02:53:20.362Z,1.60
2018-11-28T02:56:02.151Z,1.90
2018-11-28T02:58:43.959Z,1.60
2018-11-28T03:01:25.459Z,1.90
2018-11-28T03:04:07.226Z,1.82
2018-11-28T03:06:48.919Z,1.65
2018-11-28T03:09:30.967Z,1.62
2018-11-28T03:12:12.403Z,1.70
2018-11-28T03:14:54.299Z,1.57
2018-11-28T03:17:36.603Z,1.60
2018-11-28T03:20:17.833Z,1.32
2018-11-28T03:22:59.922Z,1.80
2018-11-28T03:25:40.961Z,1.40
2018-11-28T03:28:22.344Z,1.40
2018-11-28T03:31:04.653Z,1.40
2018-11-28T03:33:46.063Z,1.60
2018-11-28T03:36:27.426Z,1.70
2018-11-28T03:39:09.031Z,1.70
2018-11-28T03:41:50.820Z,1.50
2018-11-28T03:44:32.495Z,1.87
2018-11-28T03:47:14.419Z,1.95
2018-11-28T03:49:56.181Z,2.52
2018-11-28T03:52:38.486Z,2.20
2018-11-28T03:55:20.383Z,2.37
2018-11-28T03:58:01.699Z,2.00
2018-11-28T04:00:43.357Z,1.60
2018-11-28T04:03:25.046Z,1.50
2018-11-28T04:06:06.739Z,1.55
2018-11-28T04:08:48.429Z,1.80
2018-11-28T04:11:29.954Z,1.70
2018-11-28T04:14:12.768Z,1.60
2018-11-28T04:16:54.524Z,1.90
2018-11-28T04:19:36.423Z,1.60
2018-11-28T04:22:18.808Z,1.62
2018-11-28T04:25:00.012Z,1.80
2018-11-28T04:27:41.494Z,1.70
2018-11-28T04:30:22.994Z,1.77
2018-11-28T04:33:04.777Z,1.85
2018-11-28T04:35:46.468Z,1.65
2018-11-28T04:38:29.414Z,1.92
2018-11-28T04:41:09.670Z,1.60
2018-11-28T04:43:51.542Z,1.60
2018-11-28T04:46:33.230Z,1.92
2018-11-28T04:49:15.331Z,1.67
2018-11-28T04:51:56.642Z,1.60
2018-11-28T04:54:38.405Z,1.60
2018-11-28T04:57:20.367Z,2.20
2018-11-28T05:00:01.891Z,2.00
2018-11-28T05:02:43.718Z,1.75
2018-11-28T05:05:24.989Z,2.22
2018-11-28T05:08:06.865Z,1.50
2018-11-28T05:10:48.557Z,2.10
2018-11-28T05:13:30.143Z,1.75
2018-11-28T05:16:11.664Z,1.60
2018-11-28T05:18:53.449Z,1.75
2018-11-28T05:21:34.909Z,1.65
2018-11-28T05:24:17.520Z,1.70
2018-11-28T05:27:00.164Z,1.65
2018-11-28T05:29:42.543Z,1.55
2018-11-28T05:32:23.720Z,1.95
2018-11-28T05:35:05.742Z,1.62
2018-11-28T05:37:46.694Z,1.60
2018-11-28T05:40:28.658Z,1.60
2018-11-28T05:43:10.283Z,1.82
2018-11-28T05:45:51.878Z,1.95
2018-11-28T05:48:34.408Z,1.55
2018-11-28T05:51:16.892Z,1.75
2018-11-28T05:53:58.787Z,1.42
2018-11-28T05:56:40.477Z,1.82
2018-11-28T05:59:27.183Z,1.55
2018-11-28T06:02:03.755Z,1.90
2018-11-28T06:04:45.345Z,2.08
2018-11-28T06:07:26.867Z,2.08
2018-11-28T06:10:08.624Z,1.87
2018-11-28T06:12:50.163Z,1.87
2018-11-28T06:15:31.112Z,2.17
2018-11-28T06:18:12.880Z,1.95
2018-11-28T06:20:54.674Z,2.40
2018-11-28T06:23:36.285Z,2.00
2018-11-28T06:26:17.849Z,2.40
2018-11-28T06:28:59.752Z,2.00
2018-11-28T06:31:41.346Z,2.00
2018-11-28T06:34:23.437Z,1.95
2018-11-28T06:37:04.723Z,2.40
2018-11-28T06:39:46.518Z,1.90
2018-11-28T06:42:28.102Z,2.12
2018-11-28T06:45:09.895Z,2.00
2018-11-28T06:47:51.590Z,2.10
2018-11-28T06:50:33.311Z,1.85
2018-11-28T06:53:14.865Z,2.12
2018-11-28T06:55:56.659Z,1.70
2018-11-28T06:58:38.248Z,1.80
2018-11-28T07:01:20.374Z,2.00
2018-11-28T07:04:01.629Z,1.92
2018-11-28T07:06:43.115Z,1.75
2018-11-28T07:09:24.629Z,2.10
2018-11-28T07:12:06.294Z,1.80
2018-11-28T07:14:47.983Z,1.80
2018-11-28T07:17:29.707Z,2.20
2018-11-28T07:20:11.367Z,1.90
2018-11-28T07:22:52.766Z,1.70
2018-11-28T07:25:34.542Z,2.20
2018-11-28T07:28:16.235Z,2.25
2018-11-28T07:30:57.825Z,2.37
2018-11-28T07:33:39.516Z,2.95
2018-11-28T07:36:21.001Z,2.60
2018-11-28T07:39:02.591Z,2.95
2018-11-28T07:41:44.490Z,5.75
2018-11-28T07:44:25.998Z,4.70
2018-11-28T07:47:07.561Z,3.55
2018-11-28T07:49:49.254Z,5.80
2018-11-28T07:52:31.280Z,8.50
2018-11-28T08:20:15.369Z,8.70
2018-11-28T08:22:56.553Z,6.70
2018-11-28T08:25:38.343Z,6.97
2018-11-28T08:28:20.342Z,4.53
2018-11-28T08:31:01.438Z,5.40
2018-11-28T08:33:43.042Z,3.90
2018-11-28T08:36:24.805Z,3.83
2018-11-28T08:39:06.286Z,5.33
2018-11-28T08:41:47.703Z,5.93
2018-11-28T08:44:29.732Z,4.70
2018-11-28T08:47:11.257Z,5.83
2018-11-28T08:49:52.385Z,5.93
2018-11-28T08:52:33.830Z,3.40
2018-11-28T08:55:15.411Z,3.80
2018-11-28T08:57:56.998Z,4.53
2018-11-28T09:00:38.792Z,4.47
2018-11-28T09:03:20.891Z,4.43
2018-11-28T09:06:02.072Z,3.97
2018-11-28T09:08:43.807Z,3.67
2018-11-28T09:11:25.353Z,3.20
2018-11-28T09:14:06.838Z,3.37
2018-11-28T09:16:48.467Z,6.40
2018-11-28T09:19:30.220Z,3.90
2018-11-28T09:22:11.913Z,4.27
2018-11-28T09:24:53.399Z,3.30
2018-11-28T09:27:35.089Z,1.80
2018-11-28T09:30:17.032Z,2.43
2018-11-28T09:32:58.392Z,2.50
2018-11-28T09:35:40.163Z,2.33
2018-11-28T09:38:21.876Z,1.97
2018-11-28T09:41:03.363Z,1.97
2018-11-28T09:43:45.034Z,1.90
2018-11-28T09:46:26.971Z,2.40
2018-11-28T09:49:08.437Z,1.90
2018-11-28T09:51:50.207Z,2.47
2018-11-28T09:54:32.311Z,2.10
2018-11-28T09:57:13.488Z,1.80
2018-11-28T09:59:55.075Z,2.00
2018-11-28T10:02:36.461Z,1.50
2018-11-28T10:05:18.051Z,2.80
2018-11-28T10:07:59.743Z,3.20
2018-11-28T10:10:41.146Z,2.10
2018-11-28T10:13:22.712Z,1.93
2018-11-28T10:16:04.710Z,1.83
2018-11-28T10:18:46.300Z,1.80
2018-11-28T10:21:27.888Z,2.43
2018-11-28T10:24:09.603Z,1.80
2018-11-28T10:26:51.270Z,1.50
2018-11-28T10:29:32.579Z,2.10
2018-11-28T10:32:14.190Z,1.57
2018-11-28T10:34:55.832Z,3.03
2018-11-28T10:37:37.523Z,2.17
2018-11-28T10:40:19.113Z,2.30
2018-11-28T10:43:00.736Z,3.27
2018-11-28T10:45:42.451Z,2.10
2018-11-28T10:48:24.083Z,2.30
2018-11-28T10:51:05.671Z,2.30
2018-11-28T10:53:47.243Z,2.03
2018-11-28T10:56:28.851Z,2.13
2018-11-28T10:59:10.540Z,2.13
2018-11-28T11:01:57.043Z,2.50
2018-11-28T11:05:41.813Z,2.00
2018-11-28T11:08:34.976Z,2.43
2018-11-28T11:11:20.865Z,2.57
2018-11-28T11:14:07.572Z,2.30
2018-11-28T11:16:49.069Z,2.40
2018-11-28T11:19:30.752Z,2.20
2018-11-28T11:22:12.443Z,2.13
2018-11-28T11:24:54.029Z,2.50
2018-11-28T11:27:35.744Z,2.13
2018-11-28T11:30:17.433Z,2.70
2018-11-28T11:32:59.000Z,2.33
2018-11-28T11:35:40.693Z,2.97
2018-11-28T11:38:22.831Z,2.50
2018-11-28T11:41:03.769Z,2.17
2018-11-28T11:43:45.562Z,2.60
2018-11-28T11:46:27.150Z,1.80
2018-11-28T11:49:08.737Z,1.90
2018-11-28T11:51:51.284Z,2.30
2018-11-28T11:54:33.047Z,2.10
2018-11-28T11:57:14.323Z,2.77
2018-11-28T11:59:55.936Z,2.50
2018-11-28T12:02:38.115Z,2.20
2018-11-28T12:05:19.248Z,6.87
2018-11-28T12:08:00.886Z,2.63
2018-11-28T12:10:42.370Z,2.33
2018-11-28T12:13:23.858Z,2.83
2018-11-28T12:16:05.573Z,2.37
2018-11-28T12:18:47.135Z,2.60
2018-11-28T12:21:28.830Z,2.83
2018-11-28T12:24:10.521Z,2.63
2018-11-28T12:26:51.915Z,2.70
2018-11-28T12:29:33.388Z,2.50
2018-11-28T12:32:15.285Z,2.67
2018-11-28T12:34:56.669Z,2.37
2018-11-28T12:37:38.461Z,2.60
2018-11-28T12:40:20.055Z,2.50
2018-11-28T12:43:01.639Z,2.93
2018-11-28T12:45:43.431Z,2.80
2018-11-28T12:48:24.814Z,2.87
2018-11-28T12:51:06.405Z,2.83
2018-11-28T12:53:48.198Z,3.60
2018-11-28T12:56:29.790Z,4.03
2018-11-28T12:59:11.278Z,3.43
2018-11-28T13:01:53.300Z,4.20
2018-11-28T13:04:34.372Z,4.80
2018-11-28T13:07:16.248Z,3.73
2018-11-28T13:09:57.834Z,3.57
2018-11-28T13:12:39.523Z,3.80
2018-11-28T13:15:21.250Z,3.00
2018-11-28T13:18:02.802Z,2.70
2018-11-28T13:20:44.292Z,3.30
2018-11-28T13:23:25.986Z,3.40
2018-11-28T13:26:07.671Z,3.40
2018-11-28T13:28:49.262Z,3.40
2018-11-28T13:31:30.748Z,3.47
2018-11-28T13:34:12.238Z,2.57
2018-11-28T13:36:54.436Z,3.33
2018-11-28T13:39:35.516Z,3.00
2018-11-28T13:42:16.896Z,4.10
2018-11-28T13:59:28.675Z,2.90
2018-11-28T14:02:10.163Z,3.10
2018-11-28T14:04:51.852Z,3.43
2018-11-28T14:07:33.749Z,2.97
2018-11-28T14:10:15.648Z,2.40
2018-11-28T14:12:57.133Z,2.90
2018-11-28T14:15:39.440Z,2.60
2018-11-28T14:18:20.412Z,2.77
2018-11-28T14:21:02.003Z,2.60
2018-11-28T14:23:43.659Z,2.40
2018-11-28T14:26:25.812Z,2.30
2018-11-28T14:29:07.074Z,2.47
2018-11-28T14:31:48.663Z,2.87
2018-11-28T14:34:30.252Z,2.63
2018-11-28T14:37:11.844Z,2.72
2018-11-28T14:39:53.223Z,3.08
2018-11-28T14:42:35.024Z,2.37
2018-11-28T14:45:16.503Z,2.47
2018-11-28T14:47:58.194Z,2.40
2018-11-28T14:50:39.813Z,3.37
2018-11-28T14:53:21.577Z,3.10
2018-11-28T14:56:03.373Z,2.67
2018-11-28T14:58:44.960Z,3.00
2018-11-28T15:01:26.910Z,3.20
2018-11-28T15:04:08.242Z,2.85
2018-11-28T15:06:49.930Z,3.20
2018-11-28T15:10:04.339Z,3.12
2018-11-28T15:12:45.876Z,3.60
2018-11-28T15:15:27.469Z,2.50
2018-11-28T15:18:08.950Z,2.80
2018-11-28T15:20:50.538Z,3.00
2018-11-28T15:23:31.956Z,2.90
2018-11-28T15:26:13.952Z,2.93
2018-11-28T15:28:55.203Z,3.20
2018-11-28T15:31:36.997Z,3.17
2018-11-28T15:34:18.688Z,3.60
2018-11-28T15:37:00.276Z,2.65
2018-11-28T15:39:41.865Z,3.45
2018-11-28T15:42:23.760Z,3.55
2018-11-28T15:45:05.965Z,3.30
2018-11-28T15:47:47.467Z,3.58
2018-11-28T15:50:38.768Z,3.60
2018-11-28T15:53:20.459Z,3.15
2018-11-28T15:56:02.083Z,3.70
2018-11-28T15:58:43.840Z,2.83
2018-11-28T16:01:24.736Z,3.40
2018-11-28T16:04:06.506Z,2.85
2018-11-28T16:06:48.198Z,3.37
2018-11-28T16:09:34.701Z,2.80
2018-11-28T16:12:16.188Z,2.70
2018-11-28T16:14:58.800Z,3.35
2018-11-28T16:17:40.594Z,3.22
2018-11-28T16:20:22.181Z,2.70
2018-11-28T16:23:04.804Z,3.00
2018-11-28T16:25:45.615Z,3.10
2018-11-28T16:28:27.185Z,2.95
2018-11-28T16:31:08.771Z,2.87
2018-11-28T16:33:50.860Z,2.70
2018-11-28T16:36:32.891Z,2.50
2018-11-28T16:39:14.327Z,2.80
2018-11-28T16:41:55.915Z,3.17
2018-11-28T16:44:37.616Z,3.10
2018-11-28T16:47:19.299Z,2.65
2018-11-28T16:50:01.430Z,3.70
2018-11-28T16:52:42.376Z,3.33
2018-11-28T16:55:23.961Z,3.52
2018-11-28T16:58:06.369Z,3.60
2018-11-28T17:00:48.296Z,3.12
2018-11-28T17:03:29.854Z,3.10
2018-11-28T17:06:12.265Z,2.83
2018-11-28T17:08:53.973Z,2.67
2018-11-28T17:11:35.747Z,2.55
2018-11-28T17:14:17.545Z,2.70
2018-11-28T17:16:59.130Z,2.80
2018-11-28T17:19:40.754Z,8.63
2018-11-28T17:22:22.231Z,11.53
2018-11-28T17:25:03.895Z,8.23
2018-11-28T17:27:45.792Z,5.85
2018-11-28T17:30:27.482Z,3.77
2018-11-28T17:33:09.282Z,3.47
2018-11-28T17:35:51.115Z,3.17
2018-11-28T17:38:32.559Z,2.58
2018-11-28T17:41:14.353Z,2.60
2018-11-28T17:43:55.857Z,3.80
2018-11-28T17:46:37.996Z,2.92
2018-11-28T17:49:19.324Z,2.90
2018-11-28T17:52:01.035Z,2.52
2018-11-28T17:54:42.633Z,2.80
2018-11-28T17:57:24.292Z,2.62
2018-11-28T18:00:05.880Z,2.95
2018-11-28T18:02:48.004Z,3.25
2018-11-28T18:05:29.897Z,2.90
2018-11-28T18:08:11.773Z,2.67
2018-11-28T18:10:53.592Z,3.25
2018-11-28T18:13:39.472Z,2.90
2018-11-28T18:16:17.107Z,2.80
2018-11-28T18:18:58.537Z,2.85
2018-11-28T18:21:40.127Z,3.02
2018-11-28T18:24:22.200Z,2.60
2018-11-28T18:27:03.713Z,3.05
2018-11-28T18:29:45.551Z,3.45
2018-11-28T18:32:26.891Z,2.98
2018-11-28T18:35:08.581Z,3.02
2018-11-28T18:37:50.100Z,3.55
2018-11-28T18:40:31.758Z,2.60
2018-11-28T18:43:13.247Z,2.90
2018-11-28T18:45:55.038Z,3.00
2018-11-28T18:48:37.777Z,4.20
2018-11-28T18:51:19.653Z,5.08
2018-11-28T18:54:01.137Z,2.90
2018-11-28T18:56:42.931Z,3.00
2018-11-28T18:59:24.415Z,2.98
2018-11-28T19:02:06.414Z,3.10
2018-11-28T19:04:47.823Z,3.10
2018-11-28T19:07:29.489Z,3.02
2018-11-28T19:10:11.589Z,3.00
2018-11-28T19:12:53.732Z,2.90
2018-11-28T19:15:35.383Z,3.30
2018-11-28T19:18:17.176Z,3.00
2018-11-28T19:20:58.870Z,4.15
2018-11-28T19:23:40.476Z,3.00
2018-11-28T19:26:22.070Z,4.05
2018-11-28T19:29:03.019Z,4.97
2018-11-28T19:31:44.813Z,3.70
2018-11-28T19:34:26.604Z,3.52
2018-11-28T19:37:08.808Z,2.77
2018-11-28T19:39:50.091Z,3.83
2018-11-28T19:42:31.681Z,5.00
2018-11-28T19:45:13.507Z,6.47
2018-11-28T19:47:55.065Z,7.95
2018-11-28T19:50:36.342Z,4.92
2018-11-28T19:53:18.033Z,3.52
2018-11-28T19:55:59.622Z,4.05
2018-11-28T19:58:42.468Z,3.65
2018-11-28T20:01:24.028Z,3.92
2018-11-28T20:04:05.515Z,3.60
2018-11-28T20:06:47.030Z,3.27
2018-11-28T20:09:28.693Z,3.70
2018-11-28T20:12:10.508Z,5.60
2018-11-28T20:14:51.978Z,4.15
2018-11-28T20:17:33.356Z,2.62
2018-11-28T20:20:14.946Z,2.50
2018-11-28T20:22:56.533Z,2.90
2018-11-28T20:25:38.226Z,2.50
2018-11-28T20:28:19.938Z,2.00
2018-11-28T20:31:01.607Z,2.40
2018-11-28T20:33:43.092Z,2.60
2018-11-28T20:36:24.889Z,2.05
2018-11-28T20:39:07.193Z,2.33
2018-11-28T20:41:49.809Z,2.40
2018-11-28T20:44:31.497Z,2.70
2018-11-28T20:47:12.982Z,2.50
2018-11-28T20:49:54.702Z,2.90
2018-11-28T20:52:37.286Z,2.50
2018-11-28T20:55:18.380Z,2.55
2018-11-28T20:58:00.058Z,2.62
2018-11-28T21:00:42.668Z,2.60
2018-11-28T21:03:25.384Z,2.75
2018-11-28T21:06:07.075Z,2.77
2018-11-28T21:08:48.974Z,2.77
2018-11-28T21:11:30.663Z,2.90
2018-11-28T21:14:13.480Z,3.87
2018-11-28T21:16:55.069Z,4.15
2018-11-28T21:19:36.666Z,3.52
2018-11-28T21:22:18.348Z,3.83
2018-11-28T21:25:00.041Z,3.20
2018-11-28T21:27:41.773Z,3.85
2018-11-28T21:30:23.419Z,5.53
2018-11-28T21:33:05.213Z,3.10
2018-11-28T21:35:47.212Z,4.10
2018-11-28T21:38:28.902Z,3.30
2018-11-28T21:41:10.326Z,3.67
2018-11-28T21:43:52.942Z,3.65
2018-11-28T21:46:34.387Z,4.17
2018-11-28T21:49:15.875Z,4.60
2018-11-28T21:51:57.494Z,3.40
2018-11-28T21:54:39.070Z,3.40
2018-11-28T21:57:24.838Z,3.95
2018-11-28T22:00:06.325Z,3.67
2018-11-28T22:02:47.937Z,3.20
2018-11-28T22:05:29.602Z,3.25
2018-11-28T22:08:11.395Z,3.10
2018-11-28T22:10:53.010Z,2.80
2018-11-28T22:13:34.582Z,2.60
2018-11-28T22:16:16.368Z,2.50
2018-11-28T22:18:59.352Z,2.58
2018-11-28T22:21:40.780Z,3.00
2018-11-28T22:24:22.257Z,2.55
2018-11-28T22:27:04.156Z,2.60
2018-11-28T22:29:45.950Z,2.95
2018-11-28T22:32:27.746Z,2.67
2018-11-28T22:35:09.411Z,2.55
2018-11-28T22:37:51.108Z,3.25
2018-11-28T22:40:32.723Z,2.85
2018-11-28T22:43:14.409Z,2.72
2018-11-28T22:45:56.098Z,2.92
2018-11-28T22:48:37.824Z,2.40
2018-11-28T22:51:19.735Z,2.62
2018-11-28T22:54:00.968Z,3.10
2018-11-28T22:56:43.103Z,2.25
2018-11-28T22:59:24.451Z,3.02
2018-11-28T23:02:06.083Z,2.50
2018-11-28T23:04:48.042Z,2.35
2018-11-28T23:07:29.522Z,2.80
2018-11-28T23:10:11.110Z,3.15
2018-11-28T23:12:53.058Z,3.30
2018-11-28T23:15:34.808Z,2.70
2018-11-28T23:18:20.282Z,2.55
2018-11-28T23:21:01.771Z,2.60
2018-11-28T23:23:43.616Z,3.02
2018-11-28T23:26:25.047Z,2.40
2018-11-28T23:29:06.636Z,2.47
2018-11-28T23:31:48.259Z,3.10
2018-11-28T23:34:30.017Z,2.70
2018-11-28T23:37:11.709Z,3.25
2018-11-28T23:39:53.504Z,2.50
2018-11-28T23:42:35.337Z,3.05
2018-11-28T23:45:17.088Z,2.80
2018-11-28T23:47:58.575Z,2.90
2018-11-28T23:50:40.371Z,3.45
2018-11-28T23:53:21.895Z,3.27
2018-11-28T23:56:03.549Z,2.95
2018-11-28T23:58:45.240Z,3.00
